To NAV CANADA Home Page Login to a new session Search on AWWS site Disclaimer Vers la page française équivalente Tips FAQ What's new on the site To the Forecasts and Observations / NOTAM section To "File a Flight Plan" website Publications and other links Update of the User's profile FIC Telephone Numbers My Weather Data Folder Route Weather Data Regional Weather Data Local Weather Data To the Forecasts and Observations / NOTAM section
Request Generated 12/01/2020 at 08:47:55 UTC . Weather information available at that time is displayed.

METAR/TAF

TORONTO/OSHAWA EXECUTIVE AIRPORT/ON    (show WxCam)

METAR CYOO 010800Z AUTO 34015G21KT 4SM -SN FEW010 OVC034 00/00 A2943 RMK SLP976=
SPECI CYOO 010756Z AUTO 34017KT 5SM -SN FEW010 OVC034 00/00 A2943 RMK SLP976=
SPECI CYOO 010740Z AUTO 34014G20KT 6SM -SN OVC036 00/00 A2943 RMK SLP976=
METAR CYOO 010700Z AUTO 34012G21KT 9SM OVC030 01/00 A2943 RMK SLP975=
METAR CYOO 010600Z AUTO 34013G19KT 9SM OVC034 01/01 A2943 RMK SLP975=

TAF CYOO 010738Z 0108/0120 34012G22KT P6SM -RA OVC030 TEMPO 0108/0110
3SM -RASN BR OVC015
FM011000 35012G22KT 3SM -SN OVC025 TEMPO 0110/0120 11/2SM -SN
OVC012
RMK FCST BASED ON AUTO OBS. NXT FCST BY 011400Z=
Your time UTC time
Weather data provided by Environment Canada and NAV CANADA